sensor_id;sensor_type;location;lat;lon;timestamp;pressure;altitude;pressure_sealevel;temperature;humidity
21100;BME280;10708;50.824;4.408;2023-03-16T00:02:57;100756.91;;;5.87;100.00
21100;BME280;10708;50.824;4.408;2023-03-16T00:08:00;100754.31;;;5.88;100.00
21100;BME280;10708;50.824;4.408;2023-03-16T00:13:03;100751.63;;;5.91;100.00
21100;BME280;10708;50.824;4.408;2023-03-16T00:18:05;100755.06;;;5.97;100.00
21100;BME280;10708;50.824;4.408;2023-03-16T00:23:09;100743.72;;;5.98;100.00
21100;BME280;10708;50.824;4.408;2023-03-16T00:28:11;100754.09;;;6.02;100.00
21100;BME280;10708;50.824;4.408;2023-03-16T00:33:15;100755.81;;;6.03;100.00
21100;BME280;10708;50.824;4.408;2023-03-16T00:38:19;100753.16;;;6.06;100.00
21100;BME280;10708;50.824;4.408;2023-03-16T00:43:22;100745.31;;;6.06;100.00
21100;BME280;10708;50.824;4.408;2023-03-16T00:48:27;100739.13;;;6.13;100.00
21100;BME280;10708;50.824;4.408;2023-03-16T00:53:31;100729.56;;;6.11;100.00
21100;BME280;10708;50.824;4.408;2023-03-16T00:58:35;100721.66;;;6.15;100.00
21100;BME280;10708;50.824;4.408;2023-03-16T01:03:38;100722.53;;;6.16;100.00
21100;BME280;10708;50.824;4.408;2023-03-16T01:08:42;100715.53;;;6.18;100.00
21100;BME280;10708;50.824;4.408;2023-03-16T01:13:45;100707.69;;;6.18;100.00
21100;BME280;10708;50.824;4.408;2023-03-16T01:18:47;100711.97;;;6.20;100.00
21100;BME280;10708;50.824;4.408;2023-03-16T01:23:51;100702.41;;;6.19;100.00
21100;BME280;10708;50.824;4.408;2023-03-16T01:28:54;100698.88;;;6.22;100.00
21100;BME280;10708;50.824;4.408;2023-03-16T01:33:56;100694.53;;;6.21;100.00
21100;BME280;10708;50.824;4.408;2023-03-16T01:39:00;100688.44;;;6.20;100.00
21100;BME280;10708;50.824;4.408;2023-03-16T01:44:03;100688.50;;;6.17;100.00
21100;BME280;10708;50.824;4.408;2023-03-16T01:49:07;100677.22;;;6.14;100.00
21100;BME280;10708;50.824;4.408;2023-03-16T01:54:19;100676.44;;;6.09;100.00
21100;BME280;10708;50.824;4.408;2023-03-16T01:59:26;100671.28;;;6.03;100.00
21100;BME280;10708;50.824;4.408;2023-03-16T02:04:36;100665.19;;;6.02;100.00
21100;BME280;10708;50.824;4.408;2023-03-16T02:09:42;100646.13;;;5.96;100.00
21100;BME280;10708;50.824;4.408;2023-03-16T02:14:47;100641.78;;;5.96;100.00
21100;BME280;10708;50.824;4.408;2023-03-16T02:19:57;100632.19;;;5.95;100.00
21100;BME280;10708;50.824;4.408;2023-03-16T02:25:04;100632.28;;;5.87;100.00
21100;BME280;10708;50.824;4.408;2023-03-16T02:30:10;100626.22;;;5.88;100.00
21100;BME280;10708;50.824;4.408;2023-03-16T02:35:14;100619.22;;;5.87;100.00
21100;BME280;10708;50.824;4.408;2023-03-16T02:40:20;100602.72;;;5.84;100.00
21100;BME280;10708;50.824;4.408;2023-03-16T02:45:26;100600.09;;;5.85;100.00
21100;BME280;10708;50.824;4.408;2023-03-16T02:50:33;100602.69;;;5.88;100.00
21100;BME280;10708;50.824;4.408;2023-03-16T02:55:35;100595.69;;;5.87;100.00
21100;BME280;10708;50.824;4.408;2023-03-16T03:00:39;100580.91;;;5.88;100.00
21100;BME280;10708;50.824;4.408;2023-03-16T03:05:42;100573.94;;;5.88;100.00
21100;BME280;10708;50.824;4.408;2023-03-16T03:10:44;100569.53;;;5.89;100.00
21100;BME280;10708;50.824;4.408;2023-03-16T03:15:48;100565.22;;;5.86;100.00
21100;BME280;10708;50.824;4.408;2023-03-16T03:20:50;100557.38;;;5.86;100.00
21100;BME280;10708;50.824;4.408;2023-03-16T03:25:56;100551.25;;;5.89;100.00
21100;BME280;10708;50.824;4.408;2023-03-16T03:31:00;100550.41;;;5.88;100.00
21100;BME280;10708;50.824;4.408;2023-03-16T03:36:03;100549.47;;;5.92;100.00
21100;BME280;10708;50.824;4.408;2023-03-16T03:41:06;100538.13;;;5.93;100.00
21100;BME280;10708;50.824;4.408;2023-03-16T03:46:10;100541.56;;;5.97;100.00
21100;BME280;10708;50.824;4.408;2023-03-16T03:51:12;100533.63;;;6.00;100.00
21100;BME280;10708;50.824;4.408;2023-03-16T03:56:15;100526.63;;;6.02;100.00
21100;BME280;10708;50.824;4.408;2023-03-16T04:01:18;100518.75;;;6.05;100.00
21100;BME280;10708;50.824;4.408;2023-03-16T04:06:21;100513.47;;;6.08;100.00
21100;BME280;10708;50.824;4.408;2023-03-16T04:11:23;100515.16;;;6.11;100.00
21100;BME280;10708;50.824;4.408;2023-03-16T04:16:27;100509.88;;;6.12;100.00
21100;BME280;10708;50.824;4.408;2023-03-16T04:21:29;100504.63;;;6.14;100.00
21100;BME280;10708;50.824;4.408;2023-03-16T04:26:31;100505.47;;;6.16;100.00
21100;BME280;10708;50.824;4.408;2023-03-16T04:31:35;100494.16;;;6.15;100.00
21100;BME280;10708;50.824;4.408;2023-03-16T04:36:38;100498.56;;;6.12;100.00
21100;BME280;10708;50.824;4.408;2023-03-16T04:41:42;100490.81;;;6.07;100.00
21100;BME280;10708;50.824;4.408;2023-03-16T04:46:45;100478.69;;;6.03;100.00
21100;BME280;10708;50.824;4.408;2023-03-16T04:51:48;100483.19;;;5.97;100.00
21100;BME280;10708;50.824;4.408;2023-03-16T04:56:50;100476.38;;;5.88;100.00
21100;BME280;10708;50.824;4.408;2023-03-16T05:01:54;100480.75;;;5.83;100.00
21100;BME280;10708;50.824;4.408;2023-03-16T05:06:56;100473.94;;;5.76;100.00
21100;BME280;10708;50.824;4.408;2023-03-16T05:11:59;100468.78;;;5.70;100.00
21100;BME280;10708;50.824;4.408;2023-03-16T05:17:02;100460.16;;;5.66;100.00
21100;BME280;10708;50.824;4.408;2023-03-16T05:22:05;100460.22;;;5.63;100.00
21100;BME280;10708;50.824;4.408;2023-03-16T05:27:07;100453.25;;;5.62;100.00
21100;BME280;10708;50.824;4.408;2023-03-16T05:32:12;100457.56;;;5.65;100.00
21100;BME280;10708;50.824;4.408;2023-03-16T05:37:14;100457.56;;;5.65;100.00
21100;BME280;10708;50.824;4.408;2023-03-16T05:42:16;100452.31;;;5.66;100.00
21100;BME280;10708;50.824;4.408;2023-03-16T05:47:21;100457.53;;;5.68;100.00
21100;BME280;10708;50.824;4.408;2023-03-16T05:52:23;100458.31;;;5.71;100.00
21100;BME280;10708;50.824;4.408;2023-03-16T05:57:26;100444.34;;;5.74;100.00
21100;BME280;10708;50.824;4.408;2023-03-16T06:02:30;100449.53;;;5.77;100.00
21100;BME280;10708;50.824;4.408;2023-03-16T06:07:32;100454.66;;;5.81;100.00
21100;BME280;10708;50.824;4.408;2023-03-16T06:12:35;100443.25;;;5.85;100.00
21100;BME280;10708;50.824;4.408;2023-03-16T06:17:39;100441.50;;;5.87;100.00
21100;BME280;10708;50.824;4.408;2023-03-16T06:22:42;100446.63;;;5.93;100.00
21100;BME280;10708;50.824;4.408;2023-03-16T06:27:45;100450.84;;;6.01;100.00
21100;BME280;10708;50.824;4.408;2023-03-16T06:32:50;100443.78;;;6.06;100.00
21100;BME280;10708;50.824;4.408;2023-03-16T06:37:52;100428.06;;;6.09;100.00
21100;BME280;10708;50.824;4.408;2023-03-16T06:42:55;100424.50;;;6.11;100.00
21100;BME280;10708;50.824;4.408;2023-03-16T06:47:58;100432.25;;;6.17;100.00
21100;BME280;10708;50.824;4.408;2023-03-16T06:53:01;100435.50;;;6.28;100.00
21100;BME280;10708;50.824;4.408;2023-03-16T06:58:03;100428.38;;;6.35;100.00
21100;BME280;10708;50.824;4.408;2023-03-16T07:03:07;100437.81;;;6.42;100.00
21100;BME280;10708;50.824;4.408;2023-03-16T07:08:09;100438.47;;;6.52;100.00
21100;BME280;10708;50.824;4.408;2023-03-16T07:13:12;100430.47;;;6.59;100.00
21100;BME280;10708;50.824;4.408;2023-03-16T07:18:16;100434.59;;;6.70;100.00
21100;BME280;10708;50.824;4.408;2023-03-16T07:23:18;100434.38;;;6.80;100.00
21100;BME280;10708;50.824;4.408;2023-03-16T07:28:20;100436.03;;;6.84;100.00
21100;BME280;10708;50.824;4.408;2023-03-16T07:33:24;100432.38;;;6.91;100.00
21100;BME280;10708;50.824;4.408;2023-03-16T07:38:26;100431.16;;;7.06;100.00
21100;BME280;10708;50.824;4.408;2023-03-16T07:43:29;100414.38;;;7.15;100.00
21100;BME280;10708;50.824;4.408;2023-03-16T07:48:32;100431.44;;;7.31;100.00
21100;BME280;10708;50.824;4.408;2023-03-16T07:53:35;100421.47;;;7.45;100.00
21100;BME280;10708;50.824;4.408;2023-03-16T07:58:37;100425.75;;;7.82;100.00
21100;BME280;10708;50.824;4.408;2023-03-16T08:03:41;100432.13;;;8.38;100.00
21100;BME280;10708;50.824;4.408;2023-03-16T08:08:44;100431.91;;;9.01;100.00
21100;BME280;10708;50.824;4.408;2023-03-16T08:13:46;100426.06;;;9.47;100.00
21100;BME280;10708;50.824;4.408;2023-03-16T08:18:54;100432.50;;;10.13;100.00
21100;BME280;10708;50.824;4.408;2023-03-16T08:23:57;100433.78;;;10.28;100.00
21100;BME280;10708;50.824;4.408;2023-03-16T08:29:02;100428.41;;;10.54;100.00
21100;BME280;10708;50.824;4.408;2023-03-16T08:34:06;100421.16;;;11.04;100.00
21100;BME280;10708;50.824;4.408;2023-03-16T08:39:09;100414.06;;;11.48;100.00
21100;BME280;10708;50.824;4.408;2023-03-16T08:44:11;100408.25;;;11.40;100.00
21100;BME280;10708;50.824;4.408;2023-03-16T08:49:15;100412.84;;;11.57;100.00
21100;BME280;10708;50.824;4.408;2023-03-16T08:54:20;100400.34;;;11.82;100.00
21100;BME280;10708;50.824;4.408;2023-03-16T08:59:22;100402.25;;;11.79;100.00
21100;BME280;10708;50.824;4.408;2023-03-16T09:04:27;100408.03;;;11.46;100.00
21100;BME280;10708;50.824;4.408;2023-03-16T09:09:29;100405.88;;;11.34;100.00
21100;BME280;10708;50.824;4.408;2023-03-16T09:14:32;100420.91;;;11.32;100.00
21100;BME280;10708;50.824;4.408;2023-03-16T09:19:36;100412.69;;;11.18;100.00
21100;BME280;10708;50.824;4.408;2023-03-16T09:24:39;100412.09;;;11.12;100.00
21100;BME280;10708;50.824;4.408;2023-03-16T09:29:41;100404.78;;;11.18;100.00
21100;BME280;10708;50.824;4.408;2023-03-16T09:34:46;100400.38;;;11.19;100.00
21100;BME280;10708;50.824;4.408;2023-03-16T09:39:49;100400.34;;;11.40;100.00
21100;BME280;10708;50.824;4.408;2023-03-16T09:45:06;100398.97;;;11.52;100.00
21100;BME280;10708;50.824;4.408;2023-03-16T09:50:20;100397.56;;;11.65;100.00
21100;BME280;10708;50.824;4.408;2023-03-16T09:55:26;100403.34;;;12.14;100.00
21100;BME280;10708;50.824;4.408;2023-03-16T10:00:35;100399.16;;;12.29;100.00
21100;BME280;10708;50.824;4.408;2023-03-16T10:05:41;100390.25;;;12.69;100.00
21100;BME280;10708;50.824;4.408;2023-03-16T10:10:52;100389.56;;;13.20;100.00
21100;BME280;10708;50.824;4.408;2023-03-16T10:15:58;100381.97;;;13.48;100.00
21100;BME280;10708;50.824;4.408;2023-03-16T10:21:04;100381.72;;;13.70;100.00
21100;BME280;10708;50.824;4.408;2023-03-16T10:26:12;100358.25;;;13.11;100.00
21100;BME280;10708;50.824;4.408;2023-03-16T10:31:16;100356.69;;;12.71;100.00
21100;BME280;10708;50.824;4.408;2023-03-16T10:36:29;100360.19;;;12.52;100.00
21100;BME280;10708;50.824;4.408;2023-03-16T10:41:34;100352.56;;;12.28;100.00
21100;BME280;10708;50.824;4.408;2023-03-16T10:46:39;100350.00;;;12.07;100.00
21100;BME280;10708;50.824;4.408;2023-03-16T10:51:43;100338.84;;;12.19;100.00
21100;BME280;10708;50.824;4.408;2023-03-16T10:56:45;100333.66;;;12.37;100.00
21100;BME280;10708;50.824;4.408;2023-03-16T11:01:50;100324.69;;;12.58;100.00
21100;BME280;10708;50.824;4.408;2023-03-16T11:06:55;100309.44;;;12.65;100.00
21100;BME280;10708;50.824;4.408;2023-03-16T11:11:59;100323.00;;;12.76;100.00
21100;BME280;10708;50.824;4.408;2023-03-16T11:17:08;100311.19;;;12.83;100.00
21100;BME280;10708;50.824;4.408;2023-03-16T11:22:15;100301.00;;;12.92;100.00
21100;BME280;10708;50.824;4.408;2023-03-16T11:27:23;100296.50;;;12.94;100.00
21100;BME280;10708;50.824;4.408;2023-03-16T11:32:30;100283.91;;;13.00;100.00
21100;BME280;10708;50.824;4.408;2023-03-16T11:37:47;100299.41;;;13.07;100.00
21100;BME280;10708;50.824;4.408;2023-03-16T11:43:00;100292.91;;;13.14;100.00
21100;BME280;10708;50.824;4.408;2023-03-16T11:48:31;100289.34;;;13.15;100.00
21100;BME280;10708;50.824;4.408;2023-03-16T11:53:48;100287.13;;;13.06;100.00
21100;BME280;10708;50.824;4.408;2023-03-16T11:59:03;100272.19;;;13.05;100.00
21100;BME280;10708;50.824;4.408;2023-03-16T12:04:18;100271.41;;;13.03;100.00
21100;BME280;10708;50.824;4.408;2023-03-16T12:09:48;100268.50;;;13.08;100.00
21100;BME280;10708;50.824;4.408;2023-03-16T12:15:07;100252.13;;;13.01;100.00
21100;BME280;10708;50.824;4.408;2023-03-16T12:20:19;100250.78;;;12.75;100.00
21100;BME280;10708;50.824;4.408;2023-03-16T12:25:29;100240.34;;;12.72;100.00
21100;BME280;10708;50.824;4.408;2023-03-16T12:30:42;100240.44;;;12.71;100.00
21100;BME280;10708;50.824;4.408;2023-03-16T12:35:55;100217.22;;;12.77;100.00
21100;BME280;10708;50.824;4.408;2023-03-16T12:41:11;100206.94;;;12.88;100.00
21100;BME280;10708;50.824;4.408;2023-03-16T12:46:22;100200.72;;;12.89;100.00
21100;BME280;10708;50.824;4.408;2023-03-16T12:51:33;100191.72;;;12.93;100.00
21100;BME280;10708;50.824;4.408;2023-03-16T12:56:44;100167.66;;;12.98;100.00
21100;BME280;10708;50.824;4.408;2023-03-16T13:01:50;100149.47;;;13.09;100.00
21100;BME280;10708;50.824;4.408;2023-03-16T13:07:00;100150.72;;;13.19;100.00
21100;BME280;10708;50.824;4.408;2023-03-16T13:12:07;100141.13;;;13.34;100.00
21100;BME280;10708;50.824;4.408;2023-03-16T13:17:26;100148.56;;;13.43;100.00
21100;BME280;10708;50.824;4.408;2023-03-16T13:22:40;100141.84;;;13.53;100.00
21100;BME280;10708;50.824;4.408;2023-03-16T13:27:45;100133.16;;;13.67;100.00
21100;BME280;10708;50.824;4.408;2023-03-16T13:32:52;100138.19;;;13.72;100.00
21100;BME280;10708;50.824;4.408;2023-03-16T13:38:02;100124.44;;;13.81;100.00
21100;BME280;10708;50.824;4.408;2023-03-16T13:43:14;100116.00;;;13.74;100.00
21100;BME280;10708;50.824;4.408;2023-03-16T13:48:17;100113.28;;;13.76;100.00
21100;BME280;10708;50.824;4.408;2023-03-16T13:53:22;100107.03;;;13.77;100.00
21100;BME280;10708;50.824;4.408;2023-03-16T13:58:28;100109.50;;;13.80;100.00
21100;BME280;10708;50.824;4.408;2023-03-16T14:03:34;100098.50;;;13.87;100.00
21100;BME280;10708;50.824;4.408;2023-03-16T14:08:39;100069.56;;;13.84;100.00
21100;BME280;10708;50.824;4.408;2023-03-16T14:13:49;100067.31;;;13.92;100.00
21100;BME280;10708;50.824;4.408;2023-03-16T14:18:54;100065.19;;;13.83;100.00
21100;BME280;10708;50.824;4.408;2023-03-16T14:23:59;100063.31;;;13.85;100.00
21100;BME280;10708;50.824;4.408;2023-03-16T14:29:13;100072.28;;;13.83;100.00
21100;BME280;10708;50.824;4.408;2023-03-16T14:34:25;100077.03;;;13.92;100.00
21100;BME280;10708;50.824;4.408;2023-03-16T14:39:28;100070.81;;;13.93;100.00
21100;BME280;10708;50.824;4.408;2023-03-16T14:44:34;100058.06;;;13.99;100.00
21100;BME280;10708;50.824;4.408;2023-03-16T14:49:38;100064.19;;;14.16;100.00
21100;BME280;10708;50.824;4.408;2023-03-16T14:54:40;100047.06;;;14.37;100.00
21100;BME280;10708;50.824;4.408;2023-03-16T14:59:44;100042.66;;;14.52;100.00
21100;BME280;10708;50.824;4.408;2023-03-16T15:04:47;100030.28;;;14.66;100.00
21100;BME280;10708;50.824;4.408;2023-03-16T15:09:51;100022.34;;;14.66;100.00
21100;BME280;10708;50.824;4.408;2023-03-16T15:14:56;100017.94;;;14.51;100.00
21100;BME280;10708;50.824;4.408;2023-03-16T15:20:17;100007.06;;;14.42;100.00
21100;BME280;10708;50.824;4.408;2023-03-16T15:25:24;100011.09;;;14.33;100.00
21100;BME280;10708;50.824;4.408;2023-03-16T15:30:30;100014.38;;;14.22;100.00
21100;BME280;10708;50.824;4.408;2023-03-16T15:35:33;100006.03;;;14.14;100.00
21100;BME280;10708;50.824;4.408;2023-03-16T15:40:36;100003.84;;;14.21;100.00
21100;BME280;10708;50.824;4.408;2023-03-16T15:45:41;99996.78;;;14.21;100.00
21100;BME280;10708;50.824;4.408;2023-03-16T15:50:52;99987.97;;;14.07;100.00
21100;BME280;10708;50.824;4.408;2023-03-16T15:55:57;99993.19;;;13.92;100.00
21100;BME280;10708;50.824;4.408;2023-03-16T16:01:04;99985.00;;;13.97;100.00
21100;BME280;10708;50.824;4.408;2023-03-16T16:06:09;99978.78;;;14.12;100.00
21100;BME280;10708;50.824;4.408;2023-03-16T16:11:15;99980.19;;;14.18;100.00
21100;BME280;10708;50.824;4.408;2023-03-16T16:16:31;99977.13;;;14.25;100.00
21100;BME280;10708;50.824;4.408;2023-03-16T16:21:34;99971.53;;;14.30;100.00
21100;BME280;10708;50.824;4.408;2023-03-16T16:26:41;99967.00;;;14.32;100.00
21100;BME280;10708;50.824;4.408;2023-03-16T16:31:46;99968.41;;;14.23;100.00
21100;BME280;10708;50.824;4.408;2023-03-16T16:36:49;99972.81;;;14.09;100.00
21100;BME280;10708;50.824;4.408;2023-03-16T16:41:52;99960.09;;;13.85;100.00
21100;BME280;10708;50.824;4.408;2023-03-16T16:46:57;99971.94;;;13.64;100.00
21100;BME280;10708;50.824;4.408;2023-03-16T16:52:00;99961.56;;;13.45;100.00
21100;BME280;10708;50.824;4.408;2023-03-16T16:57:04;99957.03;;;13.32;100.00
21100;BME280;10708;50.824;4.408;2023-03-16T17:02:21;99957.78;;;13.18;100.00
21100;BME280;10708;50.824;4.408;2023-03-16T17:07:24;99950.53;;;13.06;100.00
21100;BME280;10708;50.824;4.408;2023-03-16T17:12:27;99947.47;;;12.98;100.00
21100;BME280;10708;50.824;4.408;2023-03-16T17:17:31;99949.00;;;12.86;100.00
21100;BME280;10708;50.824;4.408;2023-03-16T17:22:33;99947.72;;;12.77;100.00
21100;BME280;10708;50.824;4.408;2023-03-16T17:27:36;99949.03;;;12.69;100.00
21100;BME280;10708;50.824;4.408;2023-03-16T17:32:40;99941.78;;;12.56;100.00
21100;BME280;10708;50.824;4.408;2023-03-16T17:37:42;99945.00;;;12.46;100.00
21100;BME280;10708;50.824;4.408;2023-03-16T17:42:48;99946.44;;;12.36;100.00
21100;BME280;10708;50.824;4.408;2023-03-16T17:47:52;99948.00;;;12.23;100.00
21100;BME280;10708;50.824;4.408;2023-03-16T17:52:55;99943.97;;;12.15;100.00
21100;BME280;10708;50.824;4.408;2023-03-16T17:57:58;99947.09;;;12.06;100.00
21100;BME280;10708;50.824;4.408;2023-03-16T18:03:03;99947.38;;;12.00;100.00
21100;BME280;10708;50.824;4.408;2023-03-16T18:08:13;99945.94;;;11.95;100.00
21100;BME280;10708;50.824;4.408;2023-03-16T18:13:18;99952.34;;;11.89;100.00
21100;BME280;10708;50.824;4.408;2023-03-16T18:18:25;99936.00;;;11.82;100.00
21100;BME280;10708;50.824;4.408;2023-03-16T18:23:29;99938.03;;;11.77;100.00
21100;BME280;10708;50.824;4.408;2023-03-16T18:28:32;99924.91;;;11.76;100.00
21100;BME280;10708;50.824;4.408;2023-03-16T18:33:38;99920.66;;;11.72;100.00
21100;BME280;10708;50.824;4.408;2023-03-16T18:38:43;99917.50;;;11.65;100.00
21100;BME280;10708;50.824;4.408;2023-03-16T18:43:46;99907.25;;;11.59;100.00
21100;BME280;10708;50.824;4.408;2023-03-16T18:48:51;99899.56;;;11.55;100.00
21100;BME280;10708;50.824;4.408;2023-03-16T18:53:54;99894.75;;;11.45;100.00
21100;BME280;10708;50.824;4.408;2023-03-16T18:58:56;99891.56;;;11.39;100.00
21100;BME280;10708;50.824;4.408;2023-03-16T19:04:09;99888.38;;;11.32;100.00
21100;BME280;10708;50.824;4.408;2023-03-16T19:09:21;99879.94;;;11.26;100.00
21100;BME280;10708;50.824;4.408;2023-03-16T19:14:26;99884.41;;;11.24;100.00
21100;BME280;10708;50.824;4.408;2023-03-16T19:19:30;99877.38;;;11.24;100.00
21100;BME280;10708;50.824;4.408;2023-03-16T19:24:34;99865.97;;;11.24;100.00
21100;BME280;10708;50.824;4.408;2023-03-16T19:29:42;99865.13;;;11.23;100.00
21100;BME280;10708;50.824;4.408;2023-03-16T19:34:46;99875.59;;;11.25;100.00
21100;BME280;10708;50.824;4.408;2023-03-16T19:39:48;99871.25;;;11.24;100.00
21100;BME280;10708;50.824;4.408;2023-03-16T19:44:51;99866.81;;;11.24;100.00
21100;BME280;10708;50.824;4.408;2023-03-16T19:49:55;99858.00;;;11.25;100.00
21100;BME280;10708;50.824;4.408;2023-03-16T19:54:58;99843.03;;;11.26;100.00
21100;BME280;10708;50.824;4.408;2023-03-16T20:00:00;99844.75;;;11.27;100.00
21100;BME280;10708;50.824;4.408;2023-03-16T20:05:06;99841.25;;;11.26;100.00
21100;BME280;10708;50.824;4.408;2023-03-16T20:10:15;99834.28;;;11.25;100.00
21100;BME280;10708;50.824;4.408;2023-03-16T20:15:21;99830.78;;;11.25;100.00
21100;BME280;10708;50.824;4.408;2023-03-16T20:20:29;99829.84;;;11.26;100.00
21100;BME280;10708;50.824;4.408;2023-03-16T20:25:33;99840.31;;;11.27;100.00
21100;BME280;10708;50.824;4.408;2023-03-16T20:30:36;99843.72;;;11.29;100.00
21100;BME280;10708;50.824;4.408;2023-03-16T20:35:39;99834.03;;;11.30;100.00
21100;BME280;10708;50.824;4.408;2023-03-16T20:40:43;99828.69;;;11.31;100.00
21100;BME280;10708;50.824;4.408;2023-03-16T20:45:46;99831.31;;;11.31;100.00
21100;BME280;10708;50.824;4.408;2023-03-16T20:50:50;99832.09;;;11.33;100.00
21100;BME280;10708;50.824;4.408;2023-03-16T20:55:53;99824.41;;;11.29;100.00
21100;BME280;10708;50.824;4.408;2023-03-16T21:00:56;99828.75;;;11.30;100.00
21100;BME280;10708;50.824;4.408;2023-03-16T21:06:08;99820.09;;;11.28;100.00
21100;BME280;10708;50.824;4.408;2023-03-16T21:11:19;99801.66;;;11.28;100.00
21100;BME280;10708;50.824;4.408;2023-03-16T21:16:22;99781.38;;;11.28;100.00
21100;BME280;10708;50.824;4.408;2023-03-16T21:21:26;99773.56;;;11.27;100.00
21100;BME280;10708;50.824;4.408;2023-03-16T21:26:29;99770.00;;;11.28;100.00
21100;BME280;10708;50.824;4.408;2023-03-16T21:31:35;99789.13;;;11.31;100.00
21100;BME280;10708;50.824;4.408;2023-03-16T21:36:39;99795.19;;;11.33;100.00
21100;BME280;10708;50.824;4.408;2023-03-16T21:41:42;99813.41;;;11.38;100.00
21100;BME280;10708;50.824;4.408;2023-03-16T21:46:44;99804.66;;;11.37;100.00
21100;BME280;10708;50.824;4.408;2023-03-16T21:51:49;99805.34;;;11.41;100.00
21100;BME280;10708;50.824;4.408;2023-03-16T21:56:52;99805.34;;;11.41;100.00
21100;BME280;10708;50.824;4.408;2023-03-16T22:01:54;99807.13;;;11.40;100.00
21100;BME280;10708;50.824;4.408;2023-03-16T22:06:58;99792.41;;;11.36;100.00
21100;BME280;10708;50.824;4.408;2023-03-16T22:12:01;99780.75;;;11.40;100.00
21100;BME280;10708;50.824;4.408;2023-03-16T22:17:04;99776.59;;;11.36;100.00
21100;BME280;10708;50.824;4.408;2023-03-16T22:22:12;99779.31;;;11.35;100.00
21100;BME280;10708;50.824;4.408;2023-03-16T22:27:20;99783.78;;;11.33;100.00
21100;BME280;10708;50.824;4.408;2023-03-16T22:32:25;99798.91;;;11.29;100.00
21100;BME280;10708;50.824;4.408;2023-03-16T22:37:31;99794.66;;;11.27;100.00
21100;BME280;10708;50.824;4.408;2023-03-16T22:42:36;99789.47;;;11.25;100.00
21100;BME280;10708;50.824;4.408;2023-03-16T22:47:39;99782.56;;;11.23;100.00
21100;BME280;10708;50.824;4.408;2023-03-16T22:52:45;99801.94;;;11.22;100.00
21100;BME280;10708;50.824;4.408;2023-03-16T22:57:49;99790.69;;;11.18;100.00
21100;BME280;10708;50.824;4.408;2023-03-16T23:02:52;99783.72;;;11.17;100.00
21100;BME280;10708;50.824;4.408;2023-03-16T23:07:58;99774.19;;;11.15;100.00
21100;BME280;10708;50.824;4.408;2023-03-16T23:13:02;99774.97;;;11.17;100.00
21100;BME280;10708;50.824;4.408;2023-03-16T23:18:13;99768.84;;;11.16;100.00
21100;BME280;10708;50.824;4.408;2023-03-16T23:23:18;99772.41;;;11.15;100.00
21100;BME280;10708;50.824;4.408;2023-03-16T23:28:22;99758.31;;;11.16;100.00
21100;BME280;10708;50.824;4.408;2023-03-16T23:33:25;99756.41;;;11.18;100.00
21100;BME280;10708;50.824;4.408;2023-03-16T23:38:28;99757.28;;;11.19;100.00
21100;BME280;10708;50.824;4.408;2023-03-16T23:43:31;99747.59;;;11.19;100.00
21100;BME280;10708;50.824;4.408;2023-03-16T23:48:35;99746.91;;;11.16;100.00
21100;BME280;10708;50.824;4.408;2023-03-16T23:53:39;99776.25;;;11.08;100.00
21100;BME280;10708;50.824;4.408;2023-03-16T23:58:41;99769.53;;;11.02;100.00
